sensor_id;sensor_type;location;lat;lon;timestamp;P1;durP1;ratioP1;P2;durP2;ratioP2
68803;SDS011;55787;52.678;13.314;2023-08-08T00:00:27;7.47;;;0.73;;
68803;SDS011;55787;52.678;13.314;2023-08-08T00:02:54;7.15;;;0.80;;
68803;SDS011;55787;52.678;13.314;2023-08-08T00:05:21;5.00;;;0.60;;
68803;SDS011;55787;52.678;13.314;2023-08-08T00:07:48;5.25;;;0.60;;
68803;SDS011;55787;52.678;13.314;2023-08-08T00:10:16;6.03;;;0.70;;
68803;SDS011;55787;52.678;13.314;2023-08-08T00:12:42;4.85;;;0.60;;
68803;SDS011;55787;52.678;13.314;2023-08-08T00:15:09;5.10;;;0.50;;
68803;SDS011;55787;52.678;13.314;2023-08-08T00:17:36;5.75;;;0.77;;
68803;SDS011;55787;52.678;13.314;2023-08-08T00:20:03;6.60;;;0.65;;
68803;SDS011;55787;52.678;13.314;2023-08-08T00:22:30;3.13;;;0.30;;
68803;SDS011;55787;52.678;13.314;2023-08-08T00:24:57;4.57;;;0.60;;
68803;SDS011;55787;52.678;13.314;2023-08-08T00:27:24;4.80;;;0.55;;
68803;SDS011;55787;52.678;13.314;2023-08-08T00:29:51;6.57;;;0.60;;
68803;SDS011;55787;52.678;13.314;2023-08-08T00:32:19;6.45;;;0.70;;
68803;SDS011;55787;52.678;13.314;2023-08-08T00:34:47;4.72;;;0.65;;
68803;SDS011;55787;52.678;13.314;2023-08-08T00:37:13;6.03;;;0.70;;
68803;SDS011;55787;52.678;13.314;2023-08-08T00:39:41;8.00;;;0.80;;
68803;SDS011;55787;52.678;13.314;2023-08-08T00:42:12;4.90;;;0.45;;
68803;SDS011;55787;52.678;13.314;2023-08-08T00:44:39;5.22;;;0.70;;
68803;SDS011;55787;52.678;13.314;2023-08-08T00:47:08;5.07;;;0.60;;
68803;SDS011;55787;52.678;13.314;2023-08-08T00:49:36;6.78;;;0.65;;
68803;SDS011;55787;52.678;13.314;2023-08-08T00:52:03;7.07;;;0.73;;
68803;SDS011;55787;52.678;13.314;2023-08-08T00:54:32;4.20;;;0.50;;
68803;SDS011;55787;52.678;13.314;2023-08-08T00:56:58;9.48;;;0.95;;
68803;SDS011;55787;52.678;13.314;2023-08-08T00:59:25;5.68;;;0.70;;
68803;SDS011;55787;52.678;13.314;2023-08-08T01:01:53;5.78;;;0.70;;
68803;SDS011;55787;52.678;13.314;2023-08-08T01:04:20;6.03;;;0.80;;
68803;SDS011;55787;52.678;13.314;2023-08-08T01:06:54;5.18;;;0.60;;
68803;SDS011;55787;52.678;13.314;2023-08-08T01:09:36;5.88;;;0.70;;
68803;SDS011;55787;52.678;13.314;2023-08-08T01:12:06;6.38;;;0.80;;
68803;SDS011;55787;52.678;13.314;2023-08-08T01:14:34;4.53;;;0.63;;
68803;SDS011;55787;52.678;13.314;2023-08-08T01:17:02;7.03;;;0.80;;
68803;SDS011;55787;52.678;13.314;2023-08-08T01:19:30;3.75;;;0.43;;
68803;SDS011;55787;52.678;13.314;2023-08-08T01:22:01;5.47;;;0.70;;
68803;SDS011;55787;52.678;13.314;2023-08-08T01:24:30;5.22;;;0.73;;
68803;SDS011;55787;52.678;13.314;2023-08-08T01:27:00;4.95;;;0.60;;
68803;SDS011;55787;52.678;13.314;2023-08-08T01:29:27;5.25;;;0.68;;
68803;SDS011;55787;52.678;13.314;2023-08-08T01:31:54;4.78;;;0.50;;
68803;SDS011;55787;52.678;13.314;2023-08-08T01:34:21;5.07;;;0.80;;
68803;SDS011;55787;52.678;13.314;2023-08-08T01:36:49;4.80;;;0.55;;
68803;SDS011;55787;52.678;13.314;2023-08-08T01:39:26;3.90;;;0.40;;
68803;SDS011;55787;52.678;13.314;2023-08-08T01:41:56;4.50;;;0.50;;
68803;SDS011;55787;52.678;13.314;2023-08-08T01:44:23;4.30;;;0.40;;
68803;SDS011;55787;52.678;13.314;2023-08-08T01:46:54;6.35;;;0.73;;
68803;SDS011;55787;52.678;13.314;2023-08-08T01:49:21;3.55;;;0.28;;
68803;SDS011;55787;52.678;13.314;2023-08-08T01:51:48;3.20;;;0.38;;
68803;SDS011;55787;52.678;13.314;2023-08-08T01:54:16;3.85;;;0.50;;
68803;SDS011;55787;52.678;13.314;2023-08-08T01:56:43;5.03;;;0.57;;
68803;SDS011;55787;52.678;13.314;2023-08-08T01:59:10;5.43;;;0.70;;
68803;SDS011;55787;52.678;13.314;2023-08-08T02:01:39;4.78;;;0.60;;
68803;SDS011;55787;52.678;13.314;2023-08-08T02:04:06;4.90;;;0.88;;
68803;SDS011;55787;52.678;13.314;2023-08-08T02:06:32;6.28;;;0.73;;
68803;SDS011;55787;52.678;13.314;2023-08-08T02:08:59;8.25;;;0.47;;
68803;SDS011;55787;52.678;13.314;2023-08-08T02:11:26;4.13;;;0.32;;
68803;SDS011;55787;52.678;13.314;2023-08-08T02:13:52;4.40;;;0.50;;
68803;SDS011;55787;52.678;13.314;2023-08-08T02:16:20;4.07;;;0.70;;
68803;SDS011;55787;52.678;13.314;2023-08-08T02:18:46;4.85;;;0.60;;
68803;SDS011;55787;52.678;13.314;2023-08-08T02:21:14;4.47;;;0.50;;
68803;SDS011;55787;52.678;13.314;2023-08-08T02:23:41;5.35;;;0.55;;
68803;SDS011;55787;52.678;13.314;2023-08-08T02:26:08;4.35;;;0.50;;
68803;SDS011;55787;52.678;13.314;2023-08-08T02:28:35;4.95;;;0.40;;
68803;SDS011;55787;52.678;13.314;2023-08-08T02:31:01;4.57;;;0.50;;
68803;SDS011;55787;52.678;13.314;2023-08-08T02:33:28;4.05;;;0.65;;
68803;SDS011;55787;52.678;13.314;2023-08-08T02:35:55;4.18;;;0.57;;
68803;SDS011;55787;52.678;13.314;2023-08-08T02:38:22;3.50;;;0.30;;
68803;SDS011;55787;52.678;13.314;2023-08-08T02:40:49;5.22;;;0.50;;
68803;SDS011;55787;52.678;13.314;2023-08-08T02:43:16;4.72;;;0.50;;
68803;SDS011;55787;52.678;13.314;2023-08-08T02:45:42;5.32;;;0.73;;
68803;SDS011;55787;52.678;13.314;2023-08-08T02:48:09;4.15;;;0.70;;
68803;SDS011;55787;52.678;13.314;2023-08-08T02:50:36;5.80;;;0.63;;
68803;SDS011;55787;52.678;13.314;2023-08-08T02:53:03;4.82;;;0.50;;
68803;SDS011;55787;52.678;13.314;2023-08-08T02:55:30;13.55;;;0.73;;
68803;SDS011;55787;52.678;13.314;2023-08-08T02:57:56;5.40;;;0.53;;
68803;SDS011;55787;52.678;13.314;2023-08-08T03:00:23;4.68;;;0.50;;
68803;SDS011;55787;52.678;13.314;2023-08-08T03:02:50;5.55;;;0.75;;
68803;SDS011;55787;52.678;13.314;2023-08-08T03:05:16;4.45;;;0.47;;
68803;SDS011;55787;52.678;13.314;2023-08-08T03:07:43;5.22;;;0.57;;
68803;SDS011;55787;52.678;13.314;2023-08-08T03:10:10;6.90;;;0.87;;
68803;SDS011;55787;52.678;13.314;2023-08-08T03:12:37;5.38;;;0.60;;
68803;SDS011;55787;52.678;13.314;2023-08-08T03:15:04;5.18;;;0.75;;
68803;SDS011;55787;52.678;13.314;2023-08-08T03:17:31;5.03;;;0.70;;
68803;SDS011;55787;52.678;13.314;2023-08-08T03:19:58;3.90;;;0.50;;
68803;SDS011;55787;52.678;13.314;2023-08-08T03:22:25;4.90;;;0.68;;
68803;SDS011;55787;52.678;13.314;2023-08-08T03:24:51;4.60;;;0.63;;
68803;SDS011;55787;52.678;13.314;2023-08-08T03:27:18;4.40;;;0.65;;
68803;SDS011;55787;52.678;13.314;2023-08-08T03:29:44;3.70;;;0.45;;
68803;SDS011;55787;52.678;13.314;2023-08-08T03:32:11;5.50;;;0.80;;
68803;SDS011;55787;52.678;13.314;2023-08-08T03:34:38;6.97;;;0.82;;
68803;SDS011;55787;52.678;13.314;2023-08-08T03:37:04;5.03;;;0.88;;
68803;SDS011;55787;52.678;13.314;2023-08-08T03:39:31;5.05;;;0.65;;
68803;SDS011;55787;52.678;13.314;2023-08-08T03:41:58;6.13;;;1.00;;
68803;SDS011;55787;52.678;13.314;2023-08-08T03:44:25;6.60;;;0.82;;
68803;SDS011;55787;52.678;13.314;2023-08-08T03:46:52;5.68;;;0.60;;
68803;SDS011;55787;52.678;13.314;2023-08-08T03:49:31;3.90;;;0.38;;
68803;SDS011;55787;52.678;13.314;2023-08-08T03:51:57;5.68;;;0.82;;
68803;SDS011;55787;52.678;13.314;2023-08-08T03:54:24;4.55;;;0.52;;
68803;SDS011;55787;52.678;13.314;2023-08-08T03:56:51;5.10;;;0.80;;
68803;SDS011;55787;52.678;13.314;2023-08-08T03:59:18;6.45;;;0.90;;
68803;SDS011;55787;52.678;13.314;2023-08-08T04:01:44;5.80;;;0.77;;
68803;SDS011;55787;52.678;13.314;2023-08-08T04:04:11;4.28;;;0.80;;
68803;SDS011;55787;52.678;13.314;2023-08-08T04:06:38;8.20;;;0.75;;
68803;SDS011;55787;52.678;13.314;2023-08-08T04:09:04;6.43;;;0.68;;
68803;SDS011;55787;52.678;13.314;2023-08-08T04:11:31;5.85;;;0.90;;
68803;SDS011;55787;52.678;13.314;2023-08-08T04:13:58;6.85;;;0.60;;
68803;SDS011;55787;52.678;13.314;2023-08-08T04:16:24;7.82;;;1.00;;
68803;SDS011;55787;52.678;13.314;2023-08-08T04:18:52;4.78;;;0.70;;
68803;SDS011;55787;52.678;13.314;2023-08-08T04:21:19;4.63;;;0.63;;
68803;SDS011;55787;52.678;13.314;2023-08-08T04:23:45;4.82;;;0.65;;
68803;SDS011;55787;52.678;13.314;2023-08-08T04:26:12;4.85;;;0.63;;
68803;SDS011;55787;52.678;13.314;2023-08-08T04:28:41;4.70;;;0.70;;
68803;SDS011;55787;52.678;13.314;2023-08-08T04:31:07;4.93;;;0.70;;
68803;SDS011;55787;52.678;13.314;2023-08-08T04:33:34;5.97;;;0.90;;
68803;SDS011;55787;52.678;13.314;2023-08-08T04:36:01;5.45;;;0.82;;
68803;SDS011;55787;52.678;13.314;2023-08-08T04:38:27;5.03;;;0.90;;
68803;SDS011;55787;52.678;13.314;2023-08-08T04:40:54;5.30;;;0.80;;
68803;SDS011;55787;52.678;13.314;2023-08-08T04:43:21;4.57;;;0.73;;
68803;SDS011;55787;52.678;13.314;2023-08-08T04:45:47;6.07;;;1.13;;
68803;SDS011;55787;52.678;13.314;2023-08-08T04:48:14;8.27;;;0.83;;
68803;SDS011;55787;52.678;13.314;2023-08-08T04:50:41;7.13;;;1.02;;
68803;SDS011;55787;52.678;13.314;2023-08-08T04:53:07;5.60;;;0.80;;
68803;SDS011;55787;52.678;13.314;2023-08-08T04:55:34;7.38;;;0.70;;
68803;SDS011;55787;52.678;13.314;2023-08-08T04:58:01;5.30;;;0.60;;
68803;SDS011;55787;52.678;13.314;2023-08-08T05:00:27;7.07;;;0.95;;
68803;SDS011;55787;52.678;13.314;2023-08-08T05:02:54;5.85;;;0.75;;
68803;SDS011;55787;52.678;13.314;2023-08-08T05:05:21;3.70;;;0.38;;
68803;SDS011;55787;52.678;13.314;2023-08-08T05:07:48;4.28;;;0.60;;
68803;SDS011;55787;52.678;13.314;2023-08-08T05:10:14;4.22;;;0.68;;
68803;SDS011;55787;52.678;13.314;2023-08-08T05:12:41;5.35;;;0.75;;
68803;SDS011;55787;52.678;13.314;2023-08-08T05:15:08;5.68;;;0.90;;
68803;SDS011;55787;52.678;13.314;2023-08-08T05:17:35;5.85;;;0.80;;
68803;SDS011;55787;52.678;13.314;2023-08-08T05:20:01;7.47;;;0.98;;
68803;SDS011;55787;52.678;13.314;2023-08-08T05:22:29;4.78;;;0.60;;
68803;SDS011;55787;52.678;13.314;2023-08-08T05:24:56;6.80;;;0.95;;
68803;SDS011;55787;52.678;13.314;2023-08-08T05:27:22;5.68;;;0.80;;
68803;SDS011;55787;52.678;13.314;2023-08-08T05:29:49;5.63;;;0.90;;
68803;SDS011;55787;52.678;13.314;2023-08-08T05:32:16;6.78;;;0.82;;
68803;SDS011;55787;52.678;13.314;2023-08-08T05:34:42;5.28;;;0.88;;
68803;SDS011;55787;52.678;13.314;2023-08-08T05:37:09;6.57;;;1.20;;
68803;SDS011;55787;52.678;13.314;2023-08-08T05:39:42;4.93;;;0.90;;
68803;SDS011;55787;52.678;13.314;2023-08-08T05:42:10;6.43;;;0.82;;
68803;SDS011;55787;52.678;13.314;2023-08-08T05:44:36;5.10;;;0.80;;
68803;SDS011;55787;52.678;13.314;2023-08-08T05:47:03;6.05;;;0.77;;
68803;SDS011;55787;52.678;13.314;2023-08-08T05:49:30;3.95;;;0.45;;
68803;SDS011;55787;52.678;13.314;2023-08-08T05:51:56;6.60;;;0.90;;
68803;SDS011;55787;52.678;13.314;2023-08-08T05:54:24;4.43;;;0.60;;
68803;SDS011;55787;52.678;13.314;2023-08-08T05:56:50;5.57;;;0.77;;
68803;SDS011;55787;52.678;13.314;2023-08-08T05:59:17;4.97;;;0.77;;
68803;SDS011;55787;52.678;13.314;2023-08-08T06:01:44;7.38;;;1.00;;
68803;SDS011;55787;52.678;13.314;2023-08-08T06:04:12;4.13;;;0.50;;
68803;SDS011;55787;52.678;13.314;2023-08-08T06:06:40;7.30;;;1.00;;
68803;SDS011;55787;52.678;13.314;2023-08-08T06:09:07;5.95;;;0.70;;
68803;SDS011;55787;52.678;13.314;2023-08-08T06:11:35;7.40;;;0.90;;
68803;SDS011;55787;52.678;13.314;2023-08-08T06:14:02;6.53;;;0.73;;
68803;SDS011;55787;52.678;13.314;2023-08-08T06:16:29;5.10;;;1.00;;
68803;SDS011;55787;52.678;13.314;2023-08-08T06:18:55;5.72;;;0.80;;
68803;SDS011;55787;52.678;13.314;2023-08-08T06:21:22;5.32;;;0.90;;
68803;SDS011;55787;52.678;13.314;2023-08-08T06:23:49;5.80;;;0.70;;
68803;SDS011;55787;52.678;13.314;2023-08-08T06:26:16;8.43;;;1.17;;
68803;SDS011;55787;52.678;13.314;2023-08-08T06:28:43;5.20;;;0.90;;
68803;SDS011;55787;52.678;13.314;2023-08-08T06:31:10;4.93;;;0.70;;
68803;SDS011;55787;52.678;13.314;2023-08-08T06:33:36;4.35;;;0.68;;
68803;SDS011;55787;52.678;13.314;2023-08-08T06:36:03;5.60;;;1.05;;
68803;SDS011;55787;52.678;13.314;2023-08-08T06:38:30;5.22;;;0.70;;
68803;SDS011;55787;52.678;13.314;2023-08-08T06:41:00;6.10;;;1.00;;
68803;SDS011;55787;52.678;13.314;2023-08-08T06:43:30;5.35;;;0.80;;
68803;SDS011;55787;52.678;13.314;2023-08-08T06:45:57;4.82;;;0.90;;
68803;SDS011;55787;52.678;13.314;2023-08-08T06:48:24;5.30;;;0.90;;
68803;SDS011;55787;52.678;13.314;2023-08-08T06:50:50;7.28;;;1.00;;
68803;SDS011;55787;52.678;13.314;2023-08-08T06:53:17;5.05;;;0.73;;
68803;SDS011;55787;52.678;13.314;2023-08-08T06:55:44;5.75;;;1.00;;
68803;SDS011;55787;52.678;13.314;2023-08-08T06:58:11;5.50;;;0.82;;
68803;SDS011;55787;52.678;13.314;2023-08-08T07:00:38;5.28;;;1.00;;
68803;SDS011;55787;52.678;13.314;2023-08-08T07:03:04;5.45;;;0.63;;
68803;SDS011;55787;52.678;13.314;2023-08-08T07:05:32;4.53;;;0.73;;
68803;SDS011;55787;52.678;13.314;2023-08-08T07:07:59;7.60;;;0.93;;
68803;SDS011;55787;52.678;13.314;2023-08-08T07:10:25;5.50;;;0.98;;
68803;SDS011;55787;52.678;13.314;2023-08-08T07:12:53;6.70;;;0.77;;
68803;SDS011;55787;52.678;13.314;2023-08-08T07:15:20;8.13;;;1.20;;
68803;SDS011;55787;52.678;13.314;2023-08-08T07:17:48;6.75;;;1.05;;
68803;SDS011;55787;52.678;13.314;2023-08-08T07:20:14;7.38;;;1.08;;
68803;SDS011;55787;52.678;13.314;2023-08-08T07:22:42;8.05;;;1.02;;
68803;SDS011;55787;52.678;13.314;2023-08-08T07:25:08;7.45;;;1.00;;
68803;SDS011;55787;52.678;13.314;2023-08-08T07:27:35;3.65;;;0.50;;
68803;SDS011;55787;52.678;13.314;2023-08-08T07:30:03;4.97;;;0.90;;
68803;SDS011;55787;52.678;13.314;2023-08-08T07:32:30;5.75;;;1.00;;
68803;SDS011;55787;52.678;13.314;2023-08-08T07:34:59;5.88;;;1.23;;
68803;SDS011;55787;52.678;13.314;2023-08-08T07:37:27;4.65;;;0.60;;
68803;SDS011;55787;52.678;13.314;2023-08-08T07:39:54;6.40;;;1.10;;
68803;SDS011;55787;52.678;13.314;2023-08-08T07:42:21;6.63;;;1.13;;
68803;SDS011;55787;52.678;13.314;2023-08-08T07:44:47;6.10;;;1.20;;
68803;SDS011;55787;52.678;13.314;2023-08-08T07:47:14;5.90;;;0.90;;
68803;SDS011;55787;52.678;13.314;2023-08-08T07:49:41;5.32;;;0.90;;
68803;SDS011;55787;52.678;13.314;2023-08-08T07:52:07;5.00;;;0.80;;
68803;SDS011;55787;52.678;13.314;2023-08-08T07:54:34;5.85;;;0.70;;
68803;SDS011;55787;52.678;13.314;2023-08-08T07:57:01;5.82;;;0.95;;
68803;SDS011;55787;52.678;13.314;2023-08-08T07:59:28;4.93;;;0.82;;
68803;SDS011;55787;52.678;13.314;2023-08-08T08:01:55;5.95;;;0.80;;
68803;SDS011;55787;52.678;13.314;2023-08-08T08:04:21;5.22;;;0.98;;
68803;SDS011;55787;52.678;13.314;2023-08-08T08:06:48;7.22;;;1.05;;
68803;SDS011;55787;52.678;13.314;2023-08-08T08:09:14;5.57;;;1.30;;
68803;SDS011;55787;52.678;13.314;2023-08-08T08:11:41;5.28;;;0.90;;
68803;SDS011;55787;52.678;13.314;2023-08-08T08:14:08;4.85;;;0.90;;
68803;SDS011;55787;52.678;13.314;2023-08-08T08:16:34;4.63;;;0.60;;
68803;SDS011;55787;52.678;13.314;2023-08-08T08:19:01;6.18;;;1.20;;
68803;SDS011;55787;52.678;13.314;2023-08-08T08:21:28;5.07;;;0.93;;
68803;SDS011;55787;52.678;13.314;2023-08-08T08:23:56;5.95;;;0.93;;
68803;SDS011;55787;52.678;13.314;2023-08-08T08:26:22;5.63;;;0.98;;
68803;SDS011;55787;52.678;13.314;2023-08-08T08:28:49;3.67;;;0.47;;
68803;SDS011;55787;52.678;13.314;2023-08-08T08:31:16;5.10;;;1.13;;
68803;SDS011;55787;52.678;13.314;2023-08-08T08:33:42;6.53;;;1.10;;
68803;SDS011;55787;52.678;13.314;2023-08-08T08:36:09;5.97;;;0.90;;
68803;SDS011;55787;52.678;13.314;2023-08-08T08:38:39;5.78;;;1.02;;
68803;SDS011;55787;52.678;13.314;2023-08-08T08:41:06;5.20;;;0.80;;
68803;SDS011;55787;52.678;13.314;2023-08-08T08:43:36;5.35;;;0.90;;
68803;SDS011;55787;52.678;13.314;2023-08-08T08:46:03;5.88;;;0.90;;
68803;SDS011;55787;52.678;13.314;2023-08-08T08:48:30;7.00;;;1.20;;
68803;SDS011;55787;52.678;13.314;2023-08-08T08:50:57;5.38;;;0.90;;
68803;SDS011;55787;52.678;13.314;2023-08-08T08:53:25;5.13;;;0.88;;
68803;SDS011;55787;52.678;13.314;2023-08-08T08:55:52;6.30;;;1.05;;
68803;SDS011;55787;52.678;13.314;2023-08-08T08:58:20;5.68;;;1.10;;
68803;SDS011;55787;52.678;13.314;2023-08-08T09:00:47;5.22;;;0.80;;
68803;SDS011;55787;52.678;13.314;2023-08-08T09:03:14;5.50;;;0.70;;
68803;SDS011;55787;52.678;13.314;2023-08-08T09:05:42;4.32;;;0.90;;
68803;SDS011;55787;52.678;13.314;2023-08-08T09:08:11;5.38;;;0.90;;
68803;SDS011;55787;52.678;13.314;2023-08-08T09:10:41;6.00;;;1.10;;
68803;SDS011;55787;52.678;13.314;2023-08-08T09:13:08;5.78;;;1.20;;
68803;SDS011;55787;52.678;13.314;2023-08-08T09:15:34;4.88;;;0.90;;
68803;SDS011;55787;52.678;13.314;2023-08-08T09:18:01;5.50;;;0.93;;
68803;SDS011;55787;52.678;13.314;2023-08-08T09:20:28;5.90;;;1.27;;
68803;SDS011;55787;52.678;13.314;2023-08-08T09:22:56;6.55;;;1.30;;
68803;SDS011;55787;52.678;13.314;2023-08-08T09:25:23;6.15;;;1.20;;
68803;SDS011;55787;52.678;13.314;2023-08-08T09:27:51;5.72;;;0.95;;
68803;SDS011;55787;52.678;13.314;2023-08-08T09:30:21;5.07;;;1.00;;
68803;SDS011;55787;52.678;13.314;2023-08-08T09:32:48;6.15;;;1.05;;
68803;SDS011;55787;52.678;13.314;2023-08-08T09:35:15;5.35;;;1.00;;
68803;SDS011;55787;52.678;13.314;2023-08-08T09:37:42;6.68;;;1.17;;
68803;SDS011;55787;52.678;13.314;2023-08-08T09:40:09;7.05;;;1.10;;
68803;SDS011;55787;52.678;13.314;2023-08-08T09:42:39;4.85;;;0.80;;
68803;SDS011;55787;52.678;13.314;2023-08-08T09:45:08;6.00;;;1.10;;
68803;SDS011;55787;52.678;13.314;2023-08-08T09:47:35;4.70;;;0.80;;
68803;SDS011;55787;52.678;13.314;2023-08-08T09:50:03;5.90;;;1.25;;
68803;SDS011;55787;52.678;13.314;2023-08-08T09:52:33;5.60;;;1.50;;
68803;SDS011;55787;52.678;13.314;2023-08-08T09:55:01;6.00;;;1.38;;
68803;SDS011;55787;52.678;13.314;2023-08-08T09:57:29;5.20;;;1.60;;
68803;SDS011;55787;52.678;13.314;2023-08-08T09:59:56;5.22;;;1.13;;
68803;SDS011;55787;52.678;13.314;2023-08-08T10:02:24;6.78;;;1.30;;
68803;SDS011;55787;52.678;13.314;2023-08-08T10:04:52;5.15;;;1.30;;
68803;SDS011;55787;52.678;13.314;2023-08-08T10:07:19;8.68;;;1.83;;
68803;SDS011;55787;52.678;13.314;2023-08-08T10:09:46;5.07;;;1.27;;
68803;SDS011;55787;52.678;13.314;2023-08-08T10:12:12;5.80;;;1.10;;
68803;SDS011;55787;52.678;13.314;2023-08-08T10:14:41;5.20;;;1.27;;
68803;SDS011;55787;52.678;13.314;2023-08-08T10:17:12;6.03;;;1.30;;
68803;SDS011;55787;52.678;13.314;2023-08-08T10:19:49;5.25;;;1.33;;
68803;SDS011;55787;52.678;13.314;2023-08-08T10:22:30;5.10;;;0.93;;
68803;SDS011;55787;52.678;13.314;2023-08-08T10:24:57;6.13;;;1.30;;
68803;SDS011;55787;52.678;13.314;2023-08-08T10:27:27;6.70;;;1.17;;
68803;SDS011;55787;52.678;13.314;2023-08-08T10:30:01;5.93;;;1.23;;
68803;SDS011;55787;52.678;13.314;2023-08-08T10:32:40;5.45;;;1.40;;
68803;SDS011;55787;52.678;13.314;2023-08-08T10:35:09;6.95;;;1.27;;
68803;SDS011;55787;52.678;13.314;2023-08-08T10:37:37;7.00;;;1.33;;
68803;SDS011;55787;52.678;13.314;2023-08-08T10:40:04;5.82;;;1.10;;
68803;SDS011;55787;52.678;13.314;2023-08-08T10:42:40;5.22;;;0.88;;
68803;SDS011;55787;52.678;13.314;2023-08-08T10:45:11;6.60;;;1.13;;
68803;SDS011;55787;52.678;13.314;2023-08-08T10:47:42;4.70;;;0.90;;
68803;SDS011;55787;52.678;13.314;2023-08-08T10:50:15;6.28;;;1.30;;
68803;SDS011;55787;52.678;13.314;2023-08-08T10:55:25;5.82;;;1.30;;
68803;SDS011;55787;52.678;13.314;2023-08-08T10:58:05;6.55;;;1.30;;
68803;SDS011;55787;52.678;13.314;2023-08-08T11:00:34;6.15;;;1.10;;
68803;SDS011;55787;52.678;13.314;2023-08-08T11:03:03;6.55;;;1.30;;
68803;SDS011;55787;52.678;13.314;2023-08-08T11:05:33;5.03;;;1.20;;
68803;SDS011;55787;52.678;13.314;2023-08-08T11:08:01;6.00;;;1.40;;
68803;SDS011;55787;52.678;13.314;2023-08-08T11:10:29;5.47;;;1.20;;
68803;SDS011;55787;52.678;13.314;2023-08-08T11:13:00;5.53;;;1.25;;
68803;SDS011;55787;52.678;13.314;2023-08-08T11:15:32;6.30;;;1.40;;
68803;SDS011;55787;52.678;13.314;2023-08-08T11:18:00;7.88;;;2.85;;
68803;SDS011;55787;52.678;13.314;2023-08-08T11:20:31;5.35;;;1.60;;
68803;SDS011;55787;52.678;13.314;2023-08-08T11:22:59;5.97;;;1.65;;
68803;SDS011;55787;52.678;13.314;2023-08-08T11:25:27;5.65;;;1.75;;
68803;SDS011;55787;52.678;13.314;2023-08-08T11:27:55;5.93;;;1.52;;
68803;SDS011;55787;52.678;13.314;2023-08-08T11:30:23;5.78;;;1.67;;
68803;SDS011;55787;52.678;13.314;2023-08-08T11:32:54;5.90;;;2.00;;
68803;SDS011;55787;52.678;13.314;2023-08-08T11:35:24;5.50;;;1.40;;
68803;SDS011;55787;52.678;13.314;2023-08-08T11:37:51;5.28;;;1.17;;
68803;SDS011;55787;52.678;13.314;2023-08-08T11:40:19;6.03;;;1.15;;
68803;SDS011;55787;52.678;13.314;2023-08-08T11:42:47;4.90;;;1.35;;
68803;SDS011;55787;52.678;13.314;2023-08-08T11:45:16;4.88;;;1.20;;
68803;SDS011;55787;52.678;13.314;2023-08-08T11:47:48;5.55;;;1.40;;
68803;SDS011;55787;52.678;13.314;2023-08-08T11:50:18;4.88;;;1.23;;
68803;SDS011;55787;52.678;13.314;2023-08-08T11:52:46;6.22;;;1.20;;
68803;SDS011;55787;52.678;13.314;2023-08-08T11:55:13;5.05;;;1.20;;
68803;SDS011;55787;52.678;13.314;2023-08-08T11:57:40;5.00;;;1.40;;
68803;SDS011;55787;52.678;13.314;2023-08-08T12:00:07;5.15;;;1.40;;
68803;SDS011;55787;52.678;13.314;2023-08-08T12:02:41;4.90;;;1.20;;
68803;SDS011;55787;52.678;13.314;2023-08-08T12:05:10;5.22;;;1.27;;
68803;SDS011;55787;52.678;13.314;2023-08-08T12:07:38;6.70;;;1.30;;
68803;SDS011;55787;52.678;13.314;2023-08-08T12:10:15;4.65;;;0.90;;
68803;SDS011;55787;52.678;13.314;2023-08-08T12:12:52;4.57;;;1.08;;
68803;SDS011;55787;52.678;13.314;2023-08-08T12:15:21;4.75;;;0.88;;
68803;SDS011;55787;52.678;13.314;2023-08-08T12:17:48;6.85;;;1.23;;
68803;SDS011;55787;52.678;13.314;2023-08-08T12:20:15;4.70;;;0.70;;
68803;SDS011;55787;52.678;13.314;2023-08-08T12:22:42;4.82;;;0.68;;
68803;SDS011;55787;52.678;13.314;2023-08-08T12:25:09;5.18;;;0.90;;
68803;SDS011;55787;52.678;13.314;2023-08-08T12:27:36;5.00;;;1.08;;
68803;SDS011;55787;52.678;13.314;2023-08-08T12:30:05;5.03;;;1.00;;
68803;SDS011;55787;52.678;13.314;2023-08-08T12:32:33;5.68;;;1.00;;
68803;SDS011;55787;52.678;13.314;2023-08-08T12:35:00;4.80;;;1.20;;
68803;SDS011;55787;52.678;13.314;2023-08-08T12:37:26;5.22;;;1.38;;
68803;SDS011;55787;52.678;13.314;2023-08-08T12:39:53;6.43;;;1.55;;
68803;SDS011;55787;52.678;13.314;2023-08-08T12:42:20;5.50;;;1.13;;
68803;SDS011;55787;52.678;13.314;2023-08-08T12:44:47;6.85;;;1.23;;
68803;SDS011;55787;52.678;13.314;2023-08-08T12:47:17;6.00;;;1.20;;
68803;SDS011;55787;52.678;13.314;2023-08-08T12:49:45;5.90;;;1.13;;
68803;SDS011;55787;52.678;13.314;2023-08-08T12:52:13;5.13;;;1.00;;
68803;SDS011;55787;52.678;13.314;2023-08-08T12:54:40;6.57;;;1.48;;
68803;SDS011;55787;52.678;13.314;2023-08-08T12:57:07;8.80;;;1.80;;
68803;SDS011;55787;52.678;13.314;2023-08-08T12:59:35;7.25;;;1.73;;
68803;SDS011;55787;52.678;13.314;2023-08-08T13:02:02;8.05;;;1.60;;
68803;SDS011;55787;52.678;13.314;2023-08-08T13:04:30;7.03;;;1.70;;
68803;SDS011;55787;52.678;13.314;2023-08-08T13:06:56;6.65;;;1.65;;
68803;SDS011;55787;52.678;13.314;2023-08-08T13:09:23;9.60;;;1.70;;
68803;SDS011;55787;52.678;13.314;2023-08-08T13:11:50;7.78;;;1.67;;
68803;SDS011;55787;52.678;13.314;2023-08-08T13:14:16;8.30;;;1.80;;
68803;SDS011;55787;52.678;13.314;2023-08-08T13:16:43;5.80;;;1.58;;
68803;SDS011;55787;52.678;13.314;2023-08-08T13:19:10;6.70;;;1.75;;
68803;SDS011;55787;52.678;13.314;2023-08-08T13:21:37;6.57;;;1.63;;
68803;SDS011;55787;52.678;13.314;2023-08-08T13:24:05;6.40;;;1.55;;
68803;SDS011;55787;52.678;13.314;2023-08-08T13:26:32;6.18;;;1.52;;
68803;SDS011;55787;52.678;13.314;2023-08-08T13:28:58;5.82;;;1.70;;
68803;SDS011;55787;52.678;13.314;2023-08-08T13:31:25;6.43;;;1.38;;
68803;SDS011;55787;52.678;13.314;2023-08-08T13:33:52;5.65;;;1.27;;
68803;SDS011;55787;52.678;13.314;2023-08-08T13:36:18;6.60;;;1.50;;
68803;SDS011;55787;52.678;13.314;2023-08-08T13:38:45;5.93;;;1.50;;
68803;SDS011;55787;52.678;13.314;2023-08-08T13:41:11;6.10;;;1.70;;
68803;SDS011;55787;52.678;13.314;2023-08-08T13:43:39;5.50;;;1.20;;
68803;SDS011;55787;52.678;13.314;2023-08-08T13:46:05;6.15;;;1.10;;
68803;SDS011;55787;52.678;13.314;2023-08-08T13:48:36;6.30;;;1.42;;
68803;SDS011;55787;52.678;13.314;2023-08-08T13:51:03;6.20;;;1.45;;
68803;SDS011;55787;52.678;13.314;2023-08-08T13:53:30;5.28;;;1.42;;
68803;SDS011;55787;52.678;13.314;2023-08-08T13:55:57;6.35;;;1.30;;
68803;SDS011;55787;52.678;13.314;2023-08-08T13:58:24;5.63;;;1.25;;
68803;SDS011;55787;52.678;13.314;2023-08-08T14:00:51;5.97;;;1.30;;
68803;SDS011;55787;52.678;13.314;2023-08-08T14:03:18;6.07;;;1.20;;
68803;SDS011;55787;52.678;13.314;2023-08-08T14:05:45;6.78;;;1.45;;
68803;SDS011;55787;52.678;13.314;2023-08-08T14:08:12;5.10;;;1.23;;
68803;SDS011;55787;52.678;13.314;2023-08-08T14:10:39;6.47;;;1.60;;
68803;SDS011;55787;52.678;13.314;2023-08-08T14:13:05;6.72;;;1.30;;
68803;SDS011;55787;52.678;13.314;2023-08-08T14:15:32;7.15;;;1.38;;
68803;SDS011;55787;52.678;13.314;2023-08-08T14:17:59;6.13;;;1.67;;
68803;SDS011;55787;52.678;13.314;2023-08-08T14:20:26;7.03;;;1.40;;
68803;SDS011;55787;52.678;13.314;2023-08-08T14:22:53;5.38;;;1.27;;
68803;SDS011;55787;52.678;13.314;2023-08-08T14:25:20;5.82;;;1.40;;
68803;SDS011;55787;52.678;13.314;2023-08-08T14:27:47;5.60;;;1.40;;
68803;SDS011;55787;52.678;13.314;2023-08-08T14:30:14;6.63;;;1.50;;
68803;SDS011;55787;52.678;13.314;2023-08-08T14:32:40;5.70;;;1.33;;
68803;SDS011;55787;52.678;13.314;2023-08-08T14:35:07;5.65;;;1.30;;
68803;SDS011;55787;52.678;13.314;2023-08-08T14:37:35;5.85;;;1.27;;